createdAt,value
2018-07-17T00:01:35.137Z,63.40
2018-07-17T00:04:03.889Z,63.35
2018-07-17T00:06:32.605Z,64.13
2018-07-17T00:09:01.288Z,63.66
2018-07-17T00:11:30.551Z,63.80
2018-07-17T00:13:59.258Z,64.21
2018-07-17T00:16:27.963Z,63.58
2018-07-17T00:18:56.656Z,63.97
2018-07-17T00:21:25.344Z,64.17
2018-07-17T00:23:54.054Z,64.38
2018-07-17T00:26:22.754Z,64.42
2018-07-17T00:28:51.460Z,64.26
2018-07-17T00:31:20.255Z,64.99
2018-07-17T00:33:49.034Z,64.71
2018-07-17T00:36:17.711Z,64.71
2018-07-17T00:38:46.444Z,64.99
2018-07-17T00:41:15.098Z,64.79
2018-07-17T00:43:43.905Z,65.05
2018-07-17T00:46:12.581Z,65.20
2018-07-17T00:48:41.277Z,65.07
2018-07-17T00:51:10.020Z,64.75
2018-07-17T00:53:38.736Z,64.97
2018-07-17T00:56:07.544Z,65.00
2018-07-17T00:58:36.330Z,64.90
2018-07-17T01:01:04.088Z,64.84
2018-07-17T01:03:38.049Z,64.63
2018-07-17T01:06:12.005Z,64.46
2018-07-17T01:08:45.900Z,64.69
2018-07-17T01:11:19.878Z,64.02
2018-07-17T01:13:52.458Z,64.39
2018-07-17T01:16:21.144Z,64.15
2018-07-17T01:18:49.828Z,64.04
2018-07-17T01:21:18.489Z,63.48
2018-07-17T01:23:47.168Z,63.82
2018-07-17T01:26:15.854Z,63.41
2018-07-17T01:28:44.568Z,63.77
2018-07-17T01:31:13.513Z,62.95
2018-07-17T01:33:42.203Z,63.44
2018-07-17T01:36:10.932Z,62.86
2018-07-17T01:38:39.680Z,63.64
2018-07-17T01:41:08.386Z,64.02
2018-07-17T01:43:37.116Z,63.06
2018-07-17T01:46:05.903Z,62.50
2018-07-17T01:48:34.831Z,61.85
2018-07-17T01:51:03.547Z,61.56
2018-07-17T01:53:32.290Z,62.04
2018-07-17T01:56:01.022Z,63.15
2018-07-17T01:58:29.792Z,63.97
2018-07-17T02:00:58.542Z,64.46
2018-07-17T02:03:27.289Z,64.37
2018-07-17T02:05:55.976Z,64.35
2018-07-17T02:08:24.627Z,64.52
2018-07-17T02:10:53.386Z,64.96
2018-07-17T02:13:22.064Z,64.93
2018-07-17T02:15:50.779Z,64.91
2018-07-17T02:18:19.455Z,65.61
2018-07-17T02:20:48.124Z,65.46
2018-07-17T02:23:16.918Z,66.04
2018-07-17T02:25:45.620Z,66.02
2018-07-17T02:28:14.294Z,65.81
2018-07-17T02:30:43.062Z,66.22
2018-07-17T02:33:11.756Z,65.52
2018-07-17T02:35:40.445Z,66.12
2018-07-17T02:38:09.150Z,65.79
2018-07-17T02:40:37.832Z,65.85
2018-07-17T02:43:06.551Z,65.64
2018-07-17T02:45:35.222Z,66.10
2018-07-17T02:48:03.957Z,66.00
2018-07-17T02:50:32.625Z,66.00
2018-07-17T02:53:01.344Z,66.17
2018-07-17T02:55:30.043Z,66.30
2018-07-17T02:57:58.710Z,66.36
2018-07-17T03:00:27.425Z,66.43
2018-07-17T03:02:56.112Z,66.54
2018-07-17T03:05:24.923Z,66.42
2018-07-17T03:07:53.623Z,66.25
2018-07-17T03:10:22.380Z,67.22
2018-07-17T03:12:51.094Z,67.21
2018-07-17T03:15:19.799Z,67.55
2018-07-17T03:17:48.516Z,67.52
2018-07-17T03:20:17.261Z,67.71
2018-07-17T03:22:45.920Z,67.70
2018-07-17T03:25:14.607Z,68.00
2018-07-17T03:27:43.300Z,67.29
2018-07-17T03:30:12.040Z,67.77
2018-07-17T03:32:40.860Z,67.74
2018-07-17T03:35:09.581Z,67.39
2018-07-17T03:37:38.284Z,68.10
2018-07-17T03:40:07.190Z,67.27
2018-07-17T03:42:35.932Z,67.37
2018-07-17T03:45:04.749Z,67.46
2018-07-17T03:47:33.552Z,66.84
2018-07-17T03:50:02.301Z,68.01
2018-07-17T03:52:31.024Z,67.67
2018-07-17T03:54:59.725Z,67.32
2018-07-17T03:57:28.464Z,67.92
2018-07-17T03:59:57.184Z,67.74
2018-07-17T04:02:26.701Z,67.91
2018-07-17T04:04:55.481Z,67.57
2018-07-17T04:07:24.201Z,67.76
2018-07-17T04:09:52.903Z,68.50
2018-07-17T04:12:21.615Z,67.32
2018-07-17T04:14:50.396Z,68.07
2018-07-17T04:17:20.177Z,68.24
2018-07-17T04:19:49.003Z,67.62
2018-07-17T04:22:17.772Z,67.83
2018-07-17T04:24:46.817Z,67.88
2018-07-17T04:27:17.585Z,67.27
2018-07-17T04:29:46.503Z,66.82
2018-07-17T04:32:15.317Z,66.77
2018-07-17T04:34:44.015Z,66.89
2018-07-17T04:37:12.751Z,67.08
2018-07-17T04:39:41.473Z,66.72
2018-07-17T04:42:10.255Z,66.68
2018-07-17T04:44:38.955Z,66.56
2018-07-17T04:47:07.665Z,66.73
2018-07-17T04:49:36.431Z,65.90
2018-07-17T04:52:05.149Z,66.48
2018-07-17T04:54:34.256Z,65.28
2018-07-17T04:57:03.030Z,65.10
2018-07-17T04:59:31.716Z,65.11
2018-07-17T05:02:00.457Z,64.53
2018-07-17T05:04:29.193Z,64.80
2018-07-17T05:06:58.031Z,64.56
2018-07-17T05:09:26.754Z,63.88
2018-07-17T05:11:55.473Z,63.87
2018-07-17T05:14:24.156Z,63.99
2018-07-17T05:16:52.811Z,63.85
2018-07-17T05:19:21.484Z,63.96
2018-07-17T05:21:50.464Z,64.76
2018-07-17T05:24:19.239Z,64.55
2018-07-17T05:26:47.987Z,64.01
2018-07-17T05:29:16.775Z,64.20
2018-07-17T05:31:45.525Z,64.47
2018-07-17T05:34:14.331Z,62.71
2018-07-17T05:36:43.033Z,62.94
2018-07-17T05:39:11.766Z,62.87
2018-07-17T05:41:40.487Z,62.91
2018-07-17T05:44:09.275Z,62.91
2018-07-17T05:46:38.015Z,63.20
2018-07-17T05:49:06.796Z,62.73
2018-07-17T05:51:35.516Z,62.35
2018-07-17T05:54:04.347Z,62.55
2018-07-17T05:56:33.076Z,61.95
2018-07-17T05:59:01.807Z,61.57
2018-07-17T06:01:30.606Z,61.79
2018-07-17T06:03:59.398Z,61.45
2018-07-17T06:06:28.225Z,61.20
2018-07-17T06:08:56.980Z,60.71
2018-07-17T06:11:25.750Z,60.27
2018-07-17T06:13:54.558Z,59.98
2018-07-17T06:16:23.291Z,58.33
2018-07-17T06:18:52.068Z,58.92
2018-07-17T06:21:20.764Z,58.54
2018-07-17T06:23:49.469Z,58.36
2018-07-17T06:26:18.176Z,56.95
2018-07-17T06:28:46.901Z,56.99
2018-07-17T06:31:15.645Z,57.53
2018-07-17T06:33:44.428Z,55.79
2018-07-17T06:36:13.156Z,56.75
2018-07-17T06:38:41.860Z,55.78
2018-07-17T06:41:10.639Z,56.49
2018-07-17T06:43:39.403Z,56.00
2018-07-17T06:46:08.145Z,55.92
2018-07-17T06:48:36.854Z,56.02
2018-07-17T06:51:05.573Z,55.18
2018-07-17T06:53:34.344Z,56.13
2018-07-17T06:56:03.142Z,56.65
2018-07-17T06:58:31.900Z,56.35
2018-07-17T07:01:00.653Z,55.81
2018-07-17T07:03:29.347Z,55.25
2018-07-17T07:05:58.122Z,56.68
2018-07-17T07:08:26.826Z,58.22
2018-07-17T07:10:55.619Z,61.38
2018-07-17T07:13:24.301Z,61.99
2018-07-17T07:15:53.045Z,60.13
2018-07-17T07:18:21.762Z,57.68
2018-07-17T07:20:50.467Z,60.77
2018-07-17T07:23:19.213Z,59.20
2018-07-17T07:25:47.974Z,59.17
2018-07-17T07:28:16.825Z,58.63
2018-07-17T07:30:45.646Z,60.27
2018-07-17T07:33:14.355Z,59.60
2018-07-17T07:35:43.263Z,58.07
2018-07-17T07:38:12.042Z,59.92
2018-07-17T07:40:40.886Z,57.85
2018-07-17T07:43:14.204Z,60.24
2018-07-17T07:45:42.958Z,58.97
2018-07-17T07:48:14.945Z,60.76
2018-07-17T07:50:43.681Z,61.07
2018-07-17T07:53:12.427Z,63.25
2018-07-17T07:55:44.280Z,68.54
2018-07-17T07:58:18.484Z,71.22
2018-07-17T08:00:47.258Z,76.11
2018-07-17T08:03:19.886Z,77.81
2018-07-17T08:05:48.617Z,80.83
2018-07-17T08:08:17.299Z,81.95
2018-07-17T08:10:45.990Z,82.56
2018-07-17T08:13:16.550Z,82.19
2018-07-17T08:15:45.254Z,81.62
2018-07-17T08:18:15.960Z,83.48
2018-07-17T08:20:44.760Z,81.56
2018-07-17T08:23:13.539Z,83.20
2018-07-17T08:25:42.274Z,83.01
2018-07-17T08:28:11.031Z,81.54
2018-07-17T08:30:39.761Z,82.64
2018-07-17T08:33:11.930Z,83.62
2018-07-17T08:35:41.646Z,84.11
2018-07-17T08:38:10.281Z,84.17
2018-07-17T08:40:39.044Z,84.28
2018-07-17T08:43:11.182Z,82.39
2018-07-17T08:45:41.986Z,81.85
2018-07-17T08:48:17.333Z,82.18
2018-07-17T08:50:47.347Z,80.40
2018-07-17T08:53:16.026Z,81.20
2018-07-17T08:55:51.066Z,81.92
2018-07-17T08:58:19.887Z,80.41
2018-07-17T09:00:52.374Z,81.30
2018-07-17T09:03:25.155Z,81.63
2018-07-17T09:05:53.972Z,80.88
2018-07-17T09:08:29.774Z,78.15
2018-07-17T09:10:58.524Z,79.86
2018-07-17T09:13:31.409Z,76.90
2018-07-17T09:16:00.122Z,77.90
2018-07-17T09:18:28.868Z,76.44
2018-07-17T09:20:57.609Z,77.08
2018-07-17T09:23:26.369Z,76.05
2018-07-17T09:25:55.232Z,76.65
2018-07-17T09:28:30.469Z,74.38
2018-07-17T09:31:01.043Z,76.33
2018-07-17T09:33:30.878Z,74.40
2018-07-17T09:36:00.920Z,74.28
2018-07-17T09:38:29.949Z,74.57
2018-07-17T09:40:58.664Z,74.44
2018-07-17T09:43:27.411Z,75.87
2018-07-17T09:45:56.107Z,74.96
2018-07-17T09:48:24.796Z,73.63
2018-07-17T09:50:53.602Z,72.21
2018-07-17T09:53:23.301Z,72.61
2018-07-17T09:55:52.034Z,72.75
2018-07-17T09:58:20.796Z,71.72
2018-07-17T10:00:54.710Z,70.71
2018-07-17T10:03:23.545Z,69.59
2018-07-17T10:05:52.306Z,70.11
2018-07-17T10:08:21.041Z,71.11
2018-07-17T10:10:49.705Z,68.54
2018-07-17T10:13:18.444Z,68.33
2018-07-17T10:15:47.155Z,71.14
2018-07-17T10:18:15.925Z,68.47
2018-07-17T10:20:44.633Z,69.67
2018-07-17T10:23:13.460Z,66.87
2018-07-17T10:25:42.236Z,68.97
2018-07-17T10:28:10.973Z,64.92
2018-07-17T10:30:40.733Z,64.45
2018-07-17T10:33:09.548Z,65.07
2018-07-17T10:35:38.230Z,64.08
2018-07-17T10:38:06.951Z,66.35
2018-07-17T10:40:35.635Z,66.73
2018-07-17T10:43:04.363Z,61.84
2018-07-17T10:45:33.446Z,64.24
2018-07-17T10:48:02.184Z,62.86
2018-07-17T10:50:30.970Z,61.73
2018-07-17T10:52:59.714Z,60.73
2018-07-17T10:55:33.143Z,60.11
2018-07-17T10:58:03.026Z,60.12
2018-07-17T11:00:34.366Z,60.46
2018-07-17T11:03:04.711Z,61.07
2018-07-17T11:05:37.057Z,59.02
2018-07-17T11:08:08.188Z,55.70
2018-07-17T11:10:39.215Z,54.87
2018-07-17T11:13:10.412Z,53.57
2018-07-17T11:15:45.017Z,52.22
2018-07-17T11:18:20.675Z,48.09
2018-07-17T11:20:54.641Z,47.65
2018-07-17T11:23:27.421Z,47.78
2018-07-17T11:25:59.334Z,48.63
2018-07-17T11:28:28.058Z,46.32
2018-07-17T11:30:56.746Z,44.79
2018-07-17T11:33:25.559Z,46.78
2018-07-17T11:35:54.230Z,46.37
2018-07-17T11:38:23.027Z,45.46
2018-07-17T11:40:51.711Z,45.58
2018-07-17T11:43:20.472Z,47.53
2018-07-17T11:45:49.169Z,46.79
2018-07-17T11:48:17.845Z,46.46
2018-07-17T11:50:46.620Z,47.80
2018-07-17T11:53:15.360Z,48.00
2018-07-17T11:55:44.741Z,46.16
2018-07-17T11:58:13.506Z,46.10
2018-07-17T12:00:42.230Z,49.10
2018-07-17T12:03:10.982Z,49.81
2018-07-17T12:05:39.803Z,49.64
2018-07-17T12:08:08.546Z,50.87
2018-07-17T12:10:37.322Z,51.89
2018-07-17T12:13:06.249Z,52.16
2018-07-17T12:15:34.967Z,51.49
2018-07-17T12:18:03.645Z,51.47
2018-07-17T12:20:32.691Z,50.74
2018-07-17T12:23:01.251Z,51.67
2018-07-17T12:25:29.982Z,52.79
2018-07-17T12:27:59.682Z,52.36
2018-07-17T12:30:28.455Z,52.91
2018-07-17T12:32:57.251Z,56.73
2018-07-17T12:35:26.007Z,58.00
2018-07-17T12:37:55.151Z,58.66
2018-07-17T12:40:23.910Z,58.07
2018-07-17T12:42:52.882Z,57.92
2018-07-17T12:45:21.575Z,58.77
2018-07-17T12:47:50.280Z,59.24
2018-07-17T12:50:19.048Z,57.26
2018-07-17T12:52:47.927Z,57.25
2018-07-17T12:55:16.683Z,57.45
2018-07-17T12:57:45.421Z,57.30
2018-07-17T13:00:14.262Z,57.94
2018-07-17T13:02:43.074Z,57.29
2018-07-17T13:05:11.804Z,58.28
2018-07-17T13:07:40.811Z,57.99
2018-07-17T13:10:09.530Z,57.92
2018-07-17T13:12:38.359Z,57.53
2018-07-17T13:15:07.161Z,57.36
2018-07-17T13:17:35.846Z,56.88
2018-07-17T13:20:05.267Z,56.22
2018-07-17T13:22:33.919Z,55.96
2018-07-17T13:25:02.729Z,56.02
2018-07-17T13:27:31.387Z,54.62
2018-07-17T13:30:00.088Z,53.87
2018-07-17T13:32:28.842Z,55.00
2018-07-17T13:34:57.560Z,55.26
2018-07-17T13:37:26.249Z,55.48
2018-07-17T13:39:54.952Z,55.47
2018-07-17T13:42:23.702Z,55.62
2018-07-17T13:44:52.507Z,55.81
2018-07-17T13:47:21.247Z,55.13
2018-07-17T13:49:49.968Z,54.62
2018-07-17T13:52:18.794Z,52.81
2018-07-17T13:54:47.647Z,52.73
2018-07-17T13:57:16.585Z,52.69
2018-07-17T13:59:45.258Z,50.39
2018-07-17T14:02:13.927Z,49.68
2018-07-17T14:04:42.751Z,49.14
2018-07-17T14:07:11.452Z,49.18
2018-07-17T14:09:40.110Z,49.39
2018-07-17T14:12:09.450Z,47.07
2018-07-17T14:14:38.112Z,45.50
2018-07-17T14:17:06.866Z,46.42
2018-07-17T14:19:35.548Z,45.93
2018-07-17T14:22:04.318Z,45.83
2018-07-17T14:24:33.099Z,47.02
2018-07-17T14:27:05.763Z,49.07
2018-07-17T14:29:34.480Z,49.20
2018-07-17T14:32:03.187Z,50.92
2018-07-17T14:34:31.940Z,50.28
2018-07-17T14:37:00.688Z,49.84
2018-07-17T14:39:29.441Z,50.91
2018-07-17T14:41:59.387Z,51.69
2018-07-17T14:44:28.086Z,48.64
2018-07-17T14:46:56.944Z,49.33
2018-07-17T14:49:25.754Z,48.67
2018-07-17T14:51:54.510Z,48.50
2018-07-17T14:54:23.308Z,49.29
2018-07-17T14:56:52.034Z,48.51
2018-07-17T14:59:21.022Z,48.46
2018-07-17T15:01:50.643Z,47.34
2018-07-17T15:04:19.951Z,47.56
2018-07-17T15:06:48.686Z,46.47
2018-07-17T15:09:17.378Z,47.18
2018-07-17T15:11:46.060Z,46.91
2018-07-17T15:14:14.792Z,46.89
2018-07-17T15:16:43.455Z,47.20
2018-07-17T15:19:12.159Z,47.63
2018-07-17T15:21:40.863Z,48.43
2018-07-17T15:24:09.693Z,49.33
2018-07-17T15:26:38.427Z,49.10
2018-07-17T15:29:07.180Z,50.43
2018-07-17T15:31:35.970Z,51.74
2018-07-17T15:34:04.711Z,52.34
2018-07-17T15:36:33.709Z,52.37
2018-07-17T15:39:02.443Z,53.50
2018-07-17T15:41:31.160Z,53.96
2018-07-17T15:43:59.907Z,53.17
2018-07-17T15:46:28.608Z,54.66
2018-07-17T15:48:57.348Z,54.29
2018-07-17T15:51:26.097Z,54.83
2018-07-17T15:53:55.299Z,54.99
2018-07-17T15:56:23.934Z,56.14
2018-07-17T15:58:52.628Z,56.52
2018-07-17T16:01:21.563Z,56.49
2018-07-17T16:03:50.386Z,56.16
2018-07-17T16:06:19.965Z,57.49
2018-07-17T16:08:48.500Z,56.94
2018-07-17T16:11:17.487Z,57.61
2018-07-17T16:13:46.412Z,57.97
2018-07-17T16:16:14.974Z,58.42
2018-07-17T16:18:43.711Z,58.46
2018-07-17T16:21:12.545Z,59.55
2018-07-17T16:23:41.323Z,58.18
2018-07-17T16:26:10.140Z,58.79
2018-07-17T16:28:38.838Z,57.88
2018-07-17T16:31:07.521Z,58.13
2018-07-17T16:33:36.373Z,58.32
2018-07-17T16:36:05.166Z,57.06
2018-07-17T16:38:33.918Z,58.10
2018-07-17T16:41:03.226Z,57.03
2018-07-17T16:43:31.950Z,56.96
2018-07-17T16:46:00.792Z,57.15
2018-07-17T16:48:29.587Z,57.36
2018-07-17T16:50:59.744Z,56.54
2018-07-17T16:53:29.580Z,57.17
2018-07-17T16:58:06.727Z,58.25
2018-07-17T17:03:05.145Z,59.44
2018-07-17T17:05:34.157Z,59.29
2018-07-17T17:08:03.049Z,59.73
2018-07-17T17:10:31.746Z,59.93
2018-07-17T17:13:00.809Z,59.84
2018-07-17T17:15:29.767Z,59.59
2018-07-17T17:17:58.930Z,59.58
2018-07-17T17:20:27.671Z,59.94
2018-07-17T17:22:56.486Z,60.50
2018-07-17T17:25:25.389Z,60.47
2018-07-17T17:27:54.050Z,60.11
2018-07-17T17:30:22.898Z,60.72
2018-07-17T17:32:51.775Z,60.42
2018-07-17T17:35:21.083Z,61.26
2018-07-17T17:37:50.951Z,61.26
2018-07-17T17:40:19.820Z,61.74
2018-07-17T17:42:49.106Z,62.67
2018-07-17T17:45:19.357Z,63.01
2018-07-17T17:47:48.398Z,63.86
2018-07-17T17:50:17.188Z,63.86
2018-07-17T17:52:45.916Z,64.21
2018-07-17T17:55:14.612Z,64.23
2018-07-17T17:57:43.356Z,64.42
2018-07-17T18:00:12.422Z,64.49
2018-07-17T18:02:41.206Z,64.42
2018-07-17T18:05:09.964Z,64.52
2018-07-17T18:07:38.878Z,64.65
2018-07-17T18:10:07.567Z,64.99
2018-07-17T18:12:36.358Z,65.09
2018-07-17T18:15:05.150Z,65.16
2018-07-17T18:17:34.253Z,64.64
2018-07-17T18:20:03.197Z,65.38
2018-07-17T18:22:32.903Z,65.70
2018-07-17T18:25:02.069Z,65.83
2018-07-17T18:27:30.842Z,65.82
2018-07-17T18:30:00.104Z,66.00
2018-07-17T18:32:28.905Z,66.10
2018-07-17T18:34:57.618Z,66.06
2018-07-17T18:37:26.336Z,65.86
2018-07-17T18:39:55.137Z,66.24
2018-07-17T18:42:23.812Z,66.28
2018-07-17T18:44:52.564Z,66.85
2018-07-17T18:47:21.295Z,64.65
2018-07-17T18:50:12.000Z,64.81
2018-07-17T18:52:19.918Z,64.55
2018-07-17T18:54:48.586Z,65.07
2018-07-17T18:57:17.344Z,65.84
2018-07-17T18:59:46.135Z,66.12
2018-07-17T19:02:14.746Z,66.50
2018-07-17T19:04:43.460Z,66.78
2018-07-17T19:07:12.203Z,65.79
2018-07-17T19:09:41.110Z,66.51
2018-07-17T19:12:09.933Z,66.10
2018-07-17T19:14:38.816Z,65.29
2018-07-17T19:17:07.558Z,65.47
2018-07-17T19:19:36.718Z,65.16
2018-07-17T19:22:05.471Z,65.41
2018-07-17T19:24:34.500Z,64.71
2018-07-17T19:27:03.980Z,65.26
2018-07-17T19:29:32.775Z,65.52
2018-07-17T19:32:02.777Z,65.38
2018-07-17T19:34:31.852Z,65.77
2018-07-17T19:37:00.524Z,66.31
2018-07-17T19:39:29.257Z,66.52
2018-07-17T19:41:57.967Z,67.02
2018-07-17T19:44:26.701Z,67.80
2018-07-17T19:46:55.526Z,67.61
2018-07-17T19:49:24.333Z,67.60
2018-07-17T19:51:53.168Z,68.20
2018-07-17T19:54:22.064Z,68.22
2018-07-17T19:56:50.818Z,67.37
2018-07-17T19:59:19.538Z,67.19
2018-07-17T20:01:54.167Z,67.37
2018-07-17T20:04:36.394Z,67.34
2018-07-17T20:07:05.637Z,66.88
2018-07-17T20:09:34.495Z,67.37
2018-07-17T20:12:04.553Z,66.08
2018-07-17T20:14:33.261Z,66.56
2018-07-17T20:17:01.981Z,66.55
2018-07-17T20:19:30.697Z,66.92
2018-07-17T20:21:59.437Z,67.13
2018-07-17T20:24:28.347Z,67.31
2018-07-17T20:26:57.103Z,66.90
2018-07-17T20:29:26.343Z,66.65
2018-07-17T20:31:55.707Z,66.82
2018-07-17T20:34:24.545Z,66.50
2018-07-17T20:36:53.239Z,66.53
2018-07-17T20:39:21.965Z,66.70
2018-07-17T20:41:51.610Z,66.97
2018-07-17T20:44:20.365Z,67.16
2018-07-17T20:46:51.005Z,67.05
2018-07-17T20:49:19.758Z,66.97
2018-07-17T20:51:48.532Z,66.63
2018-07-17T20:54:17.187Z,66.54
2018-07-17T20:56:46.664Z,66.35
2018-07-17T20:59:15.744Z,66.15
2018-07-17T21:01:44.607Z,66.27
2018-07-17T21:04:13.373Z,66.04
2018-07-17T21:06:42.237Z,66.37
2018-07-17T21:09:12.115Z,66.44
2018-07-17T21:11:41.078Z,66.06
2018-07-17T21:14:10.740Z,66.13
2018-07-17T21:16:39.587Z,66.29
2018-07-17T21:19:08.389Z,66.73
2018-07-17T21:21:37.200Z,66.89
2018-07-17T21:24:06.017Z,67.12
2018-07-17T21:26:34.863Z,67.34
2018-07-17T21:29:03.681Z,67.29
2018-07-17T21:31:32.444Z,67.33
2018-07-17T21:34:01.227Z,67.44
2018-07-17T21:36:30.105Z,67.22
2018-07-17T21:38:58.849Z,67.14
2018-07-17T21:41:27.575Z,67.64
2018-07-17T21:43:56.325Z,67.42
2018-07-17T21:46:25.021Z,67.31
2018-07-17T21:48:53.707Z,67.91
2018-07-17T21:51:22.458Z,67.48
2018-07-17T21:53:51.155Z,67.53
2018-07-17T21:56:19.898Z,67.63
2018-07-17T21:58:48.642Z,67.56
2018-07-17T22:01:17.497Z,67.56
2018-07-17T22:03:46.210Z,67.76
2018-07-17T22:06:14.916Z,67.88
2018-07-17T22:08:44.617Z,68.29
2018-07-17T22:11:13.356Z,68.62
2018-07-17T22:13:42.021Z,68.99
2018-07-17T22:16:10.736Z,69.55
2018-07-17T22:18:39.479Z,69.58
2018-07-17T22:21:08.288Z,69.96
2018-07-17T22:23:37.008Z,69.91
2018-07-17T22:26:05.788Z,70.14
2018-07-17T22:28:34.563Z,70.28
2018-07-17T22:31:03.267Z,70.53
2018-07-17T22:33:31.990Z,70.71
2018-07-17T22:36:00.758Z,70.79
2018-07-17T22:38:29.531Z,71.10
2018-07-17T22:40:58.361Z,71.19
2018-07-17T22:43:27.125Z,71.31
2018-07-17T22:45:55.864Z,71.86
2018-07-17T22:48:24.593Z,71.19
2018-07-17T22:50:53.808Z,71.42
2018-07-17T22:53:22.511Z,71.53
2018-07-17T22:55:51.301Z,71.62
2018-07-17T22:58:20.034Z,71.47
2018-07-17T23:00:48.876Z,71.78
2018-07-17T23:03:17.590Z,71.80
2018-07-17T23:05:46.316Z,71.64
2018-07-17T23:08:15.030Z,71.74
2018-07-17T23:10:43.734Z,71.67
2018-07-17T23:13:12.498Z,71.97
2018-07-17T23:15:41.186Z,71.94
2018-07-17T23:18:09.897Z,72.22
2018-07-17T23:20:38.700Z,72.22
2018-07-17T23:23:07.424Z,72.25
2018-07-17T23:25:36.112Z,72.27
2018-07-17T23:28:04.849Z,72.63
2018-07-17T23:30:33.608Z,72.91
2018-07-17T23:33:02.266Z,72.94
2018-07-17T23:35:31.000Z,73.11
2018-07-17T23:38:00.182Z,73.55
2018-07-17T23:40:28.936Z,72.68
2018-07-17T23:42:57.709Z,72.71
2018-07-17T23:45:26.437Z,73.09
2018-07-17T23:47:55.128Z,72.93
2018-07-17T23:50:23.880Z,73.25
2018-07-17T23:52:52.579Z,73.25
2018-07-17T23:55:21.284Z,73.45
2018-07-17T23:57:49.988Z,73.56
